Capitol Logistics 297




KCVG
Cincinnati/Northern Kentucky International Airport
Covington, Kentucky
KRFD
Chicago/Rockford International Airport
Rockford, Illinois

Activity Log

Date Flight Route Aircraft Duration
05/07/2022 CPX297 LOVEY6 CADIZ JOT B752 1h 05m
03/28/2022 CPX297 JBNCH5 MIE NUKIE JOT B763 1h 19m

Route Details

Aircraft Information
Group: North America Fleet
Types: B738,B752,B762,B763
Route Data
Demand: H
Distance: 277nm
Duration: 0h 55m
Recm'd Route: JBNCH5 MIE NUKIE JOT
Origin Wx: KCVG 270518Z 23008KT 10SM FEW009 BKN042 OVC050 17/16 A2982 RMK AO2 RAB0453E05 P0000 T01720161 $
Dest. Wx: KRFD 270454Z 06005KT 10SM FEW037 BKN044 OVC110 17/15 A2976 RMK AO2 RAE23 SLP073 P0000 T01720150 $
Notes:

Financial History
Total Freight: 175,557lbs
Average Load: 87,779lbs/flt
Fuel Used: 22,633lbs
Avg. Fuel Used: 11,317lbs/flt
Fuel Expense: $12,274
Avg. Fuel Expense: $6,137
Avg. Fuel Cost: $0.54/lbs
Total Gross Income: $431,870
Pilot Pay: $338
Total Expenses: $52,609
Total Revenue: $366,593
Average Revenue: $215,935.11